Scribner, Nebraska
Current Conditions -  °F | °C
As of 9:55 AM on Thursday 23 Oct 2014 (Local Time) from KFET Reporting Station
Moderate Fog Moderate Fog  
Wind Chill: 52°   Ceiling: 100
Heat Index: 52°   Visibility: 0.5mi
Dew Point: 52°   Wind: 3mph
Humidity: 97%   Direction: 280°W
Pressure: 30.08"   Gusts: NA
Location:  41.67°N, 96.67°W
Report Text: KFET 231455Z AUTO 28003KT 1/2SM FG OVC001 11/11 A3008 RMK AO2 T01130109
Loading
Personal Weather Stations






























Interactive Weather Map
Tropical Storm Tracking
New forecast layout! Learn more

10-Day Weather Forecast

Advertisements
Track Severe Weather on mobile